Time;durP1;ratioP1;P1;durP2;ratioP2;P2;SDS_P1;SDS_P2;PMS_P1;PMS_P2;Temp;Humidity;BMP_temperature;BMP_pressure;BME280_temperature;BME280_humidity;BME280_pressure;Samples;Min_cycle;Max_cycle;Signal;HPM_P1;HPM_P2
2021/11/06 00:01:41;;;;;;;9.23;7.07;;;26.30;95.40;;;;;;5083587;28;20402;-70
2021/11/06 00:04:08;;;;;;;9.98;7.40;;;26.70;92.80;;;;;;5082848;28;20705;-62
2021/11/06 00:06:35;;;;;;;9.98;7.38;;;26.50;95.40;;;;;;5083387;28;20049;-65
2021/11/06 00:09:02;;;;;;;7.57;5.90;;;26.70;94.30;;;;;;5082987;28;20043;-65
2021/11/06 00:11:30;;;;;;;6.88;6.18;;;27.00;92.10;;;;;;5062875;28;20032;-64
2021/11/06 00:13:57;;;;;;;9.50;8.05;;;26.90;92.60;;;;;;4380025;28;10000809;-69
2021/11/06 00:16:24;;;;;;;11.82;7.53;;;27.10;92.60;;;;;;5080813;28;20135;-68
2021/11/06 00:18:51;;;;;;;9.20;7.38;;;27.40;91.40;;;;;;5080319;28;20493;-64
2021/11/06 00:21:18;;;;;;;8.65;6.93;;;27.50;92.00;;;;;;5080564;28;20016;-65
2021/11/06 00:23:45;;;;;;;9.32;6.60;;;27.80;90.80;;;;;;5079574;28;20466;-68
2021/11/06 00:26:12;;;;;;;7.88;5.88;;;27.80;86.90;;;;;;5080686;28;20573;-69
2021/11/06 00:28:39;;;;;;;7.13;6.10;;;27.90;83.20;;;;;;5080760;28;20032;-68
2021/11/06 00:31:06;;;;;;;7.75;6.30;;;27.90;84.90;;;;;;5080562;28;20051;-68
2021/11/06 00:33:33;;;;;;;7.13;5.05;;;28.00;86.50;;;;;;5077619;28;20036;-66
2021/11/06 00:36:00;;;;;;;6.07;5.10;;;28.20;84.00;;;;;;5079731;28;20040;-68
2021/11/06 00:38:27;;;;;;;6.55;5.00;;;28.40;79.40;;;;;;5079705;28;20023;-66
2021/11/06 00:40:54;;;;;;;6.78;5.43;;;28.30;84.50;;;;;;5080453;28;20024;-69
2021/11/06 00:43:21;;;;;;;8.95;5.95;;;28.40;85.50;;;;;;5080725;28;20099;-68
2021/11/06 00:45:48;;;;;;;8.95;5.43;;;28.40;81.90;;;;;;5080507;28;20530;-68
2021/11/06 00:48:15;;;;;;;5.88;4.75;;;28.50;78.30;;;;;;5060485;28;20066;-69
2021/11/06 00:50:42;;;;;;;5.07;4.35;;;28.10;82.10;;;;;;5078566;28;20416;-67
2021/11/06 00:53:09;;;;;;;5.97;4.10;;;28.10;81.30;;;;;;5079774;28;20042;-69
2021/11/06 00:55:36;;;;;;;6.78;4.25;;;28.40;80.50;;;;;;5080504;28;20074;-68
2021/11/06 00:58:03;;;;;;;4.15;3.35;;;28.60;79.40;;;;;;5080199;28;20033;-67
2021/11/06 01:00:30;;;;;;;3.95;3.55;;;28.90;74.70;;;;;;5060353;28;20433;-67
2021/11/06 01:02:57;;;;;;;3.90;3.40;;;29.20;76.00;;;;;;5080166;28;20468;-67
2021/11/06 01:05:24;;;;;;;5.65;3.42;;;29.10;71.90;;;;;;5080143;28;20849;-66
2021/11/06 01:07:51;;;;;;;5.78;3.65;;;29.30;73.30;;;;;;5080361;28;20039;-63
2021/11/06 01:10:19;;;;;;;3.80;3.35;;;29.30;70.90;;;;;;5078659;28;20036;-64
2021/11/06 01:12:46;;;;;;;4.60;3.75;;;29.30;70.90;;;;;;5082192;28;20028;-66
2021/11/06 01:15:14;;;;;;;4.72;4.05;;;29.30;70.60;;;;;;5063746;28;20063;-69
2021/11/06 01:17:42;;;;;;;4.93;3.47;;;29.70;72.40;;;;;;5064595;28;20041;-65
2021/11/06 01:20:09;;;;;;;3.90;3.50;;;30.10;71.90;;;;;;5080303;28;20032;-65
2021/11/06 01:22:37;;;;;;;17.27;13.35;;;30.30;72.10;;;;;;5082342;28;20441;-64
2021/11/06 01:25:06;;;;;;;5.55;4.93;;;30.20;72.40;;;;;;5083241;28;20020;-65
2021/11/06 01:27:34;;;;;;;5.68;5.07;;;30.40;68.00;;;;;;5083069;28;20839;-67
2021/11/06 01:30:00;;;;;;;7.43;3.58;;;30.00;67.20;;;;;;5083878;28;20626;-67
2021/11/06 01:32:27;;;;;;;4.20;3.63;;;30.10;65.90;;;;;;5082476;28;20250;-62
2021/11/06 01:34:54;;;;;;;3.78;3.17;;;30.30;64.00;;;;;;5083112;28;20039;-68
2021/11/06 01:37:21;;;;;;;5.22;3.22;;;30.40;67.10;;;;;;5083950;28;20069;-67
2021/11/06 01:39:48;;;;;;;4.03;3.22;;;30.50;65.40;;;;;;5083842;28;20026;-67
2021/11/06 01:42:15;;;;;;;5.72;4.00;;;30.50;63.70;;;;;;5063682;28;20035;-66
2021/11/06 01:44:42;;;;;;;4.57;3.20;;;30.60;63.50;;;;;;5083863;28;20448;-64
2021/11/06 01:47:10;;;;;;;2.00;1.77;;;30.60;62.80;;;;;;5082648;28;20031;-64
2021/11/06 01:49:40;;;;;;;2.63;1.73;;;30.70;57.80;;;;;;5083583;28;20460;-66
2021/11/06 01:52:08;;;;;;;1.40;0.95;;;30.60;56.60;;;;;;5082242;28;20132;-67
2021/11/06 01:54:35;;;;;;;1.75;1.35;;;30.80;53.80;;;;;;5083331;28;20043;-64
2021/11/06 01:57:03;;;;;;;1.70;1.60;;;31.10;55.80;;;;;;5083215;28;20542;-65
2021/11/06 01:59:30;;;;;;;1.42;1.30;;;31.20;56.10;;;;;;5082519;28;20028;-66
2021/11/06 02:01:58;;;;;;;3.92;2.78;;;31.40;53.90;;;;;;5083464;28;20023;-64
2021/11/06 02:04:25;;;;;;;2.63;1.80;;;31.40;56.40;;;;;;5083091;28;20031;-66
2021/11/06 02:06:52;;;;;;;2.17;1.90;;;31.20;51.70;;;;;;5082583;28;20016;-64
2021/11/06 02:09:19;;;;;;;4.72;4.05;;;31.30;56.80;;;;;;5083099;28;20067;-66
2021/11/06 02:11:46;;;;;;;3.22;1.95;;;31.30;54.20;;;;;;5081829;28;20461;-64
2021/11/06 02:14:13;;;;;;;2.63;1.48;;;31.10;52.00;;;;;;5081846;28;20033;-68
2021/11/06 02:16:40;;;;;;;2.45;1.80;;;31.30;52.60;;;;;;5082807;28;20055;-68
2021/11/06 02:19:08;;;;;;;2.30;1.73;;;31.50;52.30;;;;;;5083547;28;20033;-67
2021/11/06 02:21:36;;;;;;;1.63;1.33;;;31.30;49.80;;;;;;5082699;28;20024;-63
2021/11/06 02:24:04;;;;;;;4.85;1.83;;;31.60;50.00;;;;;;5082804;28;20077;-69
2021/11/06 02:26:32;;;;;;;2.58;1.80;;;31.80;55.00;;;;;;5082350;28;20028;-65
2021/11/06 02:29:03;;;;;;;3.67;1.88;;;31.70;53.20;;;;;;5083425;28;20020;-65
2021/11/06 02:31:30;;;;;;;1.70;1.60;;;31.70;52.40;;;;;;5082678;28;20385;-65
2021/11/06 02:33:57;;;;;;;3.88;2.55;;;31.90;52.00;;;;;;5080923;28;20635;-65
2021/11/06 02:36:25;;;;;;;3.25;2.20;;;31.90;52.30;;;;;;5082316;28;20664;-65
2021/11/06 02:38:52;;;;;;;2.83;1.90;;;32.00;53.20;;;;;;5082432;28;20028;-65
2021/11/06 02:41:19;;;;;;;4.07;2.13;;;32.10;54.50;;;;;;5080315;28;20127;-67
2021/11/06 02:43:46;;;;;;;2.92;1.80;;;32.30;54.50;;;;;;5082446;28;20028;-64
2021/11/06 02:46:13;;;;;;;2.22;1.88;;;32.20;50.20;;;;;;5082312;28;20130;-66
2021/11/06 02:48:40;;;;;;;1.80;1.55;;;32.40;50.60;;;;;;5082265;28;20028;-67
2021/11/06 02:51:07;;;;;;;2.65;1.60;;;32.10;48.60;;;;;;5082529;28;20036;-64
2021/11/06 02:53:34;;;;;;;2.13;1.38;;;31.80;51.20;;;;;;5082205;28;20147;-67
2021/11/06 02:56:01;;;;;;;2.22;1.70;;;32.00;50.10;;;;;;5082075;28;20074;-67
2021/11/06 02:58:29;;;;;;;3.67;1.30;;;32.20;52.50;;;;;;5082126;28;20024;-64
2021/11/06 03:00:57;;;;;;;1.50;1.40;;;32.40;48.10;;;;;;5082170;28;20020;-64
2021/11/06 03:03:24;;;;;;;1.63;1.30;;;32.60;49.10;;;;;;5081962;28;20039;-63
2021/11/06 03:05:51;;;;;;;1.58;1.48;;;32.50;51.10;;;;;;5080593;28;20086;-67
2021/11/06 03:08:18;;;;;;;1.33;1.23;;;32.60;49.80;;;;;;5082826;28;20020;-63
2021/11/06 03:10:45;;;;;;;1.83;1.60;;;32.60;48.60;;;;;;5081725;28;20134;-63
2021/11/06 03:13:12;;;;;;;2.45;1.30;;;32.40;49.80;;;;;;5081165;28;20935;-69
2021/11/06 03:15:39;;;;;;;1.17;1.08;;;32.20;49.80;;;;;;5082367;28;20108;-63
2021/11/06 03:18:06;;;;;;;7.53;2.85;;;32.20;47.10;;;;;;5082109;28;20024;-69
2021/11/06 03:20:33;;;;;;;2.25;1.60;;;32.30;51.20;;;;;;5080195;28;20028;-64
2021/11/06 03:23:00;;;;;;;3.05;1.98;;;32.30;50.10;;;;;;5079965;28;20028;-68
2021/11/06 03:25:30;;;;;;;1.75;1.63;;;32.50;49.30;;;;;;5080995;28;20099;-69
2021/11/06 03:27:57;;;;;;;3.45;1.73;;;32.70;48.40;;;;;;5081357;28;20028;-68
2021/11/06 03:30:24;;;;;;;2.47;1.33;;;32.50;48.30;;;;;;5080653;28;20123;-68
2021/11/06 03:32:52;;;;;;;1.65;1.33;;;32.70;46.60;;;;;;5079676;28;20016;-63
2021/11/06 03:35:19;;;;;;;2.20;1.60;;;32.80;48.40;;;;;;5062091;28;20039;-63
2021/11/06 03:37:46;;;;;;;2.17;1.52;;;32.90;48.20;;;;;;5080254;28;20070;-69
2021/11/06 03:40:14;;;;;;;1.80;1.63;;;33.00;50.30;;;;;;5081647;28;20353;-63
2021/11/06 03:42:42;;;;;;;3.63;2.53;;;33.00;50.40;;;;;;5081567;28;20032;-64
2021/11/06 03:45:10;;;;;;;4.68;2.92;;;32.90;48.40;;;;;;5080768;28;20076;-64
2021/11/06 03:47:37;;;;;;;3.20;2.90;;;32.10;49.40;;;;;;5080915;28;20028;-64
2021/11/06 03:50:07;;;;;;;2.50;2.10;;;31.20;49.70;;;;;;5079806;28;20038;-63
2021/11/06 03:52:35;;;;;;;2.80;2.28;;;31.20;50.90;;;;;;5080892;28;20035;-63
2021/11/06 03:55:02;;;;;;;2.60;2.35;;;31.80;50.70;;;;;;5078847;28;20043;-68
2021/11/06 03:57:29;;;;;;;4.38;1.77;;;32.50;49.60;;;;;;5078310;28;20035;-62
2021/11/06 03:59:56;;;;;;;1.92;1.75;;;33.00;49.90;;;;;;5079276;28;20051;-63
2021/11/06 04:02:24;;;;;;;1.63;1.50;;;33.40;49.40;;;;;;5077262;28;20028;-65
2021/11/06 04:04:51;;;;;;;3.30;2.80;;;33.80;45.50;;;;;;5079579;28;20081;-65
2021/11/06 04:07:18;;;;;;;2.10;1.33;;;33.90;47.80;;;;;;5079428;28;20028;-68
2021/11/06 04:09:45;;;;;;;3.58;2.58;;;33.80;44.10;;;;;;5080054;28;20108;-67
2021/11/06 04:12:12;;;;;;;2.10;1.90;;;33.90;47.70;;;;;;5080525;28;20020;-69
2021/11/06 04:14:39;;;;;;;1.75;1.20;;;34.00;48.00;;;;;;5079157;28;20020;-69
2021/11/06 04:17:06;;;;;;;2.15;1.70;;;33.90;47.30;;;;;;5081093;28;20031;-68
2021/11/06 04:19:32;;;;;;;3.92;1.98;;;33.70;46.90;;;;;;5077627;28;20029;-68
2021/11/06 04:22:00;;;;;;;1.70;1.20;;;33.80;43.90;;;;;;5080846;28;20103;-67
2021/11/06 04:24:27;;;;;;;1.30;1.20;;;33.70;44.00;;;;;;5080161;28;20386;-68
2021/11/06 04:26:54;;;;;;;4.20;1.73;;;33.70;45.40;;;;;;5077530;28;20111;-66
2021/11/06 04:29:21;;;;;;;3.30;1.80;;;33.50;47.70;;;;;;5080338;28;20036;-65
2021/11/06 04:31:48;;;;;;;2.03;1.50;;;34.00;46.20;;;;;;5081600;28;20331;-68
2021/11/06 04:34:15;;;;;;;2.60;1.70;;;34.40;46.10;;;;;;5078188;28;20403;-63
2021/11/06 04:36:43;;;;;;;2.00;1.52;;;34.60;45.40;;;;;;5079148;28;20434;-69
2021/11/06 04:39:10;;;;;;;1.77;1.67;;;34.60;43.80;;;;;;5079028;28;20031;-63
2021/11/06 04:41:37;;;;;;;2.40;1.20;;;34.20;44.50;;;;;;5080538;28;20020;-64
2021/11/06 04:44:04;;;;;;;5.00;1.60;;;34.40;45.00;;;;;;5080092;28;20781;-69
2021/11/06 04:46:31;;;;;;;4.53;1.83;;;34.00;49.50;;;;;;5079327;28;20020;-64
2021/11/06 04:48:58;;;;;;;2.75;1.30;;;33.80;51.70;;;;;;5082711;28;20506;-69
2021/11/06 04:51:27;;;;;;;3.25;1.50;;;33.30;51.20;;;;;;5084455;28;20024;-68
2021/11/06 04:53:55;;;;;;;2.72;1.45;;;32.60;52.70;;;;;;5076237;28;20049;-68
2021/11/06 04:56:22;;;;;;;4.13;1.50;;;31.80;54.80;;;;;;5068498;28;20124;-65
2021/11/06 04:58:49;;;;;;;2.95;1.60;;;31.20;55.80;;;;;;5068526;28;20027;-67
2021/11/06 05:01:16;;;;;;;4.35;1.67;;;30.90;56.80;;;;;;5059010;28;20024;-68
2021/11/06 05:03:43;;;;;;;3.65;1.40;;;30.90;57.20;;;;;;5068382;28;20086;-64
2021/11/06 05:06:10;;;;;;;2.88;1.35;;;30.60;56.80;;;;;;5068019;28;20204;-67
2021/11/06 05:08:37;;;;;;;2.80;1.35;;;30.20;58.60;;;;;;5068770;28;20025;-65
2021/11/06 05:11:04;;;;;;;7.05;2.10;;;30.00;60.00;;;;;;5069160;28;20321;-68
2021/11/06 05:13:31;;;;;;;3.67;1.73;;;29.60;61.20;;;;;;5066982;28;20490;-67
2021/11/06 05:15:58;;;;;;;3.45;1.33;;;29.40;60.90;;;;;;5067737;28;20143;-64
2021/11/06 05:18:28;;;;;;;3.47;1.45;;;29.00;63.10;;;;;;5068306;28;20023;-63
2021/11/06 05:20:55;;;;;;;3.33;1.52;;;28.80;64.90;;;;;;5067883;28;20035;-65
2021/11/06 05:23:22;;;;;;;4.57;1.17;;;28.80;66.00;;;;;;5067957;28;20483;-64
2021/11/06 05:25:49;;;;;;;5.38;1.67;;;29.50;63.40;;;;;;5067806;28;20021;-66
2021/11/06 05:28:17;;;;;;;5.18;1.50;;;30.20;62.70;;;;;;5068117;28;20024;-67
2021/11/06 05:30:44;;;;;;;3.85;1.40;;;30.50;60.60;;;;;;5066918;28;20139;-62
2021/11/06 05:33:13;;;;;;;3.97;1.40;;;30.60;61.30;;;;;;5064986;28;20040;-64
2021/11/06 05:35:40;;;;;;;6.45;1.75;;;31.10;60.40;;;;;;5066564;28;20044;-66
2021/11/06 05:38:07;;;;;;;3.33;1.42;;;31.40;58.40;;;;;;5067652;28;20086;-65
2021/11/06 05:40:35;;;;;;;4.82;1.30;;;31.00;60.30;;;;;;5066453;28;20025;-66
2021/11/06 05:43:02;;;;;;;4.95;1.77;;;31.10;58.90;;;;;;5067422;28;20052;-67
2021/11/06 05:45:29;;;;;;;2.97;1.35;;;31.30;60.60;;;;;;5064265;28;20024;-65
2021/11/06 05:47:56;;;;;;;2.67;1.27;;;31.80;58.00;;;;;;5061839;28;20372;-64
2021/11/06 05:50:23;;;;;;;6.75;1.45;;;32.00;57.70;;;;;;5066081;28;20030;-64
2021/11/06 05:52:50;;;;;;;3.20;1.10;;;32.10;56.50;;;;;;5067064;28;20025;-67
2021/11/06 05:55:17;;;;;;;4.05;1.05;;;31.20;58.80;;;;;;5067734;28;20051;-67
2021/11/06 05:57:45;;;;;;;3.50;1.40;;;30.70;59.90;;;;;;5065686;28;20082;-68
2021/11/06 06:00:19;;;;;;;5.70;1.23;;;30.20;60.60;;;;;;5066276;28;20028;-65
2021/11/06 06:02:47;;;;;;;3.90;1.33;;;30.20;60.10;;;;;;5063124;28;20036;-66
2021/11/06 06:05:14;;;;;;;6.20;1.40;;;29.90;61.80;;;;;;5070123;28;20028;-67
2021/11/06 06:07:42;;;;;;;2.60;1.20;;;29.10;63.80;;;;;;5068680;28;20136;-65
2021/11/06 06:10:12;;;;;;;4.38;1.40;;;28.70;65.70;;;;;;5067513;28;20150;-65
2021/11/06 06:12:40;;;;;;;4.55;1.40;;;28.40;66.50;;;;;;5065660;28;20375;-65
2021/11/06 06:15:08;;;;;;;2.42;0.82;;;28.10;68.60;;;;;;5065118;28;20462;-64
2021/11/06 06:17:37;;;;;;;4.20;1.48;;;27.80;69.30;;;;;;5066718;28;20025;-65
2021/11/06 06:20:06;;;;;;;3.30;1.30;;;27.60;69.80;;;;;;5066744;28;20402;-65
2021/11/06 06:22:33;;;;;;;4.70;1.60;;;27.80;71.30;;;;;;5067261;28;20027;-65
2021/11/06 06:25:00;;;;;;;4.88;1.98;;;27.90;71.00;;;;;;5066598;28;20039;-65
2021/11/06 06:27:27;;;;;;;3.65;1.80;;;27.70;72.90;;;;;;5066738;28;20539;-65
2021/11/06 06:29:54;;;;;;;6.78;1.98;;;27.50;72.50;;;;;;5066461;28;20024;-68
2021/11/06 06:32:21;;;;;;;4.53;1.42;;;27.30;73.80;;;;;;5065044;28;20020;-68
2021/11/06 06:34:48;;;;;;;3.35;1.92;;;27.30;74.60;;;;;;5065913;28;20108;-67
2021/11/06 06:37:15;;;;;;;7.85;2.00;;;27.30;74.60;;;;;;5066321;28;20196;-67
2021/11/06 06:39:42;;;;;;;4.50;1.23;;;27.20;73.80;;;;;;5064893;28;20020;-66
2021/11/06 06:42:09;;;;;;;3.53;1.30;;;27.10;74.30;;;;;;5064941;28;20028;-66
2021/11/06 06:44:36;;;;;;;4.22;1.67;;;26.90;76.00;;;;;;5066195;28;20035;-65
2021/11/06 06:47:03;;;;;;;4.93;1.50;;;26.90;74.30;;;;;;5065674;28;20020;-68
2021/11/06 06:49:30;;;;;;;6.28;1.85;;;26.80;75.60;;;;;;5064863;28;20483;-66
2021/11/06 06:51:57;;;;;;;6.82;2.40;;;26.70;75.90;;;;;;5066241;28;20021;-67
2021/11/06 06:54:25;;;;;;;6.40;1.83;;;26.90;76.50;;;;;;5071600;22;20048;-66
2021/11/06 06:56:52;;;;;;;4.85;1.40;;;27.70;72.80;;;;;;5065547;28;20025;-66
2021/11/06 06:59:19;;;;;;;4.82;1.52;;;27.70;72.50;;;;;;5064820;28;20033;-68
2021/11/06 07:01:46;;;;;;;5.55;1.60;;;27.90;72.10;;;;;;5065596;28;20106;-68
2021/11/06 07:04:14;;;;;;;6.57;1.80;;;28.10;71.20;;;;;;5065936;28;20025;-68
2021/11/06 07:06:47;;;;;;;6.10;1.25;;;28.20;72.30;;;;;;5065071;28;20059;-65
2021/11/06 07:09:13;;;;;;;7.88;2.20;;;27.90;72.70;;;;;;5065317;28;20055;-64
2021/11/06 07:11:40;;;;;;;5.30;1.65;;;27.80;72.60;;;;;;5043300;28;20055;-70
2021/11/06 07:14:07;;;;;;;3.67;1.58;;;27.70;71.70;;;;;;5060965;28;20029;-65
2021/11/06 07:16:34;;;;;;;3.42;1.50;;;28.00;70.90;;;;;;5062680;28;20024;-68
2021/11/06 07:19:02;;;;;;;5.25;2.17;;;28.70;68.80;;;;;;5063163;28;20070;-71
2021/11/06 07:21:29;;;;;;;3.60;1.40;;;28.80;68.30;;;;;;5061443;28;20025;-68
2021/11/06 07:23:56;;;;;;;6.22;2.03;;;28.70;67.60;;;;;;5063715;28;20100;-64
2021/11/06 07:26:23;;;;;;;5.15;1.55;;;29.10;66.70;;;;;;5063576;28;20474;-68
2021/11/06 07:28:50;;;;;;;4.32;1.65;;;28.70;66.40;;;;;;5063830;28;20037;-68
2021/11/06 07:31:17;;;;;;;5.25;1.38;;;28.30;67.80;;;;;;5063906;28;20078;-67
2021/11/06 07:33:46;;;;;;;4.80;2.00;;;27.70;69.60;;;;;;5062730;28;20528;-68
2021/11/06 07:36:13;;;;;;;4.55;1.48;;;27.20;73.00;;;;;;5063434;28;20024;-67
2021/11/06 07:38:41;;;;;;;4.53;1.75;;;26.70;74.00;;;;;;5062703;28;20025;-67
2021/11/06 07:41:08;;;;;;;6.75;1.90;;;26.30;75.80;;;;;;5063318;28;20082;-67
2021/11/06 07:43:37;;;;;;;8.65;4.07;;;26.00;78.90;;;;;;5061750;28;20024;-69
2021/11/06 07:46:05;;;;;;;9.35;3.78;;;25.50;80.80;;;;;;5061536;28;20024;-69
2021/11/06 07:48:32;;;;;;;4.65;2.28;;;25.30;83.30;;;;;;5059759;28;20043;-66
2021/11/06 07:50:59;;;;;;;5.47;2.40;;;25.10;84.10;;;;;;5060289;28;20465;-67
2021/11/06 07:53:29;;;;;;;6.82;3.42;;;25.00;85.70;;;;;;5060984;28;20044;-69
2021/11/06 07:55:56;;;;;;;12.25;6.13;;;24.80;88.20;;;;;;5060952;28;20509;-66
2021/11/06 07:58:23;;;;;;;8.38;4.80;;;24.70;87.20;;;;;;5061329;28;20071;-69
2021/11/06 08:00:51;;;;;;;4.63;2.58;;;24.50;90.10;;;;;;5060771;28;20059;-68
2021/11/06 08:03:18;;;;;;;6.03;2.40;;;24.50;90.40;;;;;;5060056;28;20372;-67
2021/11/06 08:05:46;;;;;;;6.70;2.40;;;24.40;90.80;;;;;;5056013;28;20457;-65
2021/11/06 08:08:13;;;;;;;7.97;2.50;;;24.20;91.00;;;;;;5058230;28;20028;-68
2021/11/06 08:10:40;;;;;;;6.30;2.60;;;23.90;91.50;;;;;;5057426;28;20032;-65
2021/11/06 08:13:08;;;;;;;6.90;2.05;;;23.80;92.00;;;;;;5057851;28;20031;-68
2021/11/06 08:15:35;;;;;;;12.75;8.30;;;23.80;92.00;;;;;;5058050;28;20024;-68
2021/11/06 08:18:02;;;;;;;14.63;10.48;;;23.70;93.10;;;;;;5058110;28;20025;-65
2021/11/06 08:20:29;;;;;;;10.07;3.00;;;23.50;93.20;;;;;;5057512;28;20031;-66
2021/11/06 08:22:56;;;;;;;6.18;2.78;;;23.40;93.10;;;;;;5057376;28;20185;-68
2021/11/06 08:25:24;;;;;;;8.02;2.10;;;23.30;93.80;;;;;;5056936;28;20110;-65
2021/11/06 08:27:53;;;;;;;8.63;2.28;;;23.20;93.90;;;;;;5057079;28;20048;-66
2021/11/06 08:30:22;;;;;;;5.32;1.95;;;23.20;94.30;;;;;;5057574;28;20087;-67
2021/11/06 08:32:51;;;;;;;4.88;1.80;;;23.10;94.70;;;;;;5056029;28;20020;-68
2021/11/06 08:35:18;;;;;;;7.80;1.67;;;23.00;95.40;;;;;;5054881;28;20706;-66
2021/11/06 08:37:45;;;;;;;9.90;4.60;;;22.90;95.60;;;;;;5056983;28;20129;-64
2021/11/06 08:40:13;;;;;;;5.15;2.25;;;22.90;96.50;;;;;;5057800;28;20487;-65
2021/11/06 08:42:41;;;;;;;8.70;2.25;;;22.80;96.30;;;;;;5058077;28;20020;-67
2021/11/06 08:45:11;;;;;;;5.82;1.75;;;22.70;96.50;;;;;;5057107;28;20055;-66
2021/11/06 08:47:39;;;;;;;6.97;2.60;;;22.70;97.00;;;;;;5057612;28;20033;-66
2021/11/06 08:50:07;;;;;;;10.00;3.47;;;22.70;97.00;;;;;;5058482;28;20017;-69
2021/11/06 08:52:35;;;;;;;5.82;2.55;;;22.60;97.40;;;;;;5056996;28;20021;-67
2021/11/06 08:55:03;;;;;;;7.45;2.83;;;22.70;97.00;;;;;;5058510;28;20041;-66
2021/11/06 08:57:30;;;;;;;10.45;5.85;;;22.70;97.40;;;;;;5057163;28;20055;-69
2021/11/06 09:00:05;;;;;;;5.28;3.05;;;22.70;97.20;;;;;;5057095;28;20127;-67
2021/11/06 09:02:35;;;;;;;10.48;3.70;;;22.70;97.40;;;;;;4700640;28;10000637;-68
2021/11/06 09:05:04;;;;;;;7.65;3.58;;;22.60;98.00;;;;;;5057615;28;20025;-66
2021/11/06 09:07:33;;;;;;;8.18;3.90;;;22.50;98.30;;;;;;5055643;28;20020;-68
2021/11/06 09:10:12;;;;;;;6.43;2.67;;;22.50;98.70;;;;;;5055290;28;20025;-67
2021/11/06 09:12:39;;;;;;;4.78;2.20;;;22.50;98.30;;;;;;5055641;28;20017;-68
2021/11/06 09:15:07;;;;;;;9.23;2.53;;;22.60;97.60;;;;;;5055219;28;20055;-68
2021/11/06 09:17:35;;;;;;;5.10;2.10;;;22.60;97.60;;;;;;5054703;28;20337;-67
2021/11/06 09:20:05;;;;;;;7.18;1.90;;;22.60;97.40;;;;;;5055394;28;20025;-68
2021/11/06 09:22:32;;;;;;;5.80;1.90;;;22.60;97.60;;;;;;5054740;28;20473;-69
2021/11/06 09:24:59;;;;;;;6.10;1.80;;;22.60;97.60;;;;;;5035242;28;20504;-70
2021/11/06 09:27:26;;;;;;;7.35;1.70;;;22.50;97.80;;;;;;5053409;28;20454;-68
2021/11/06 09:29:53;;;;;;;6.45;1.58;;;22.40;98.20;;;;;;5054133;28;20063;-66
2021/11/06 09:32:21;;;;;;;4.88;1.88;;;22.40;98.40;;;;;;5052424;28;20064;-67
2021/11/06 09:34:49;;;;;;;5.35;2.22;;;22.40;98.90;;;;;;5056483;28;20170;-69
2021/11/06 09:37:16;;;;;;;7.07;1.92;;;22.30;99.00;;;;;;5055497;28;20032;-66
2021/11/06 09:39:43;;;;;;;5.65;2.00;;;22.30;98.90;;;;;;5057051;28;20072;-66
2021/11/06 09:42:11;;;;;;;6.10;1.77;;;22.30;99.40;;;;;;5054629;28;20028;-67
2021/11/06 09:44:38;;;;;;;4.47;1.95;;;22.30;99.40;;;;;;5055958;28;20051;-67
2021/11/06 09:47:10;;;;;;;10.50;2.30;;;22.30;99.40;;;;;;5055250;28;20039;-68
2021/11/06 09:49:38;;;;;;;6.10;2.00;;;22.30;99.20;;;;;;5054009;28;20433;-66
2021/11/06 09:52:06;;;;;;;4.78;2.28;;;22.30;99.00;;;;;;5056954;28;20033;-68
2021/11/06 09:54:34;;;;;;;6.28;2.88;;;22.40;98.90;;;;;;5038650;28;20481;-65
2021/11/06 09:57:01;;;;;;;7.80;2.72;;;22.40;99.20;;;;;;5061233;28;20028;-67
2021/11/06 09:59:28;;;;;;;9.48;3.70;;;22.30;99.90;;;;;;5059683;28;20387;-70
2021/11/06 10:01:56;;;;;;;8.40;3.00;;;22.30;99.90;;;;;;5060589;28;20043;-66
2021/11/06 10:04:25;;;;;;;7.18;2.17;;;22.20;99.90;;;;;;5059280;28;20668;-65
2021/11/06 10:06:52;;;;;;;4.57;1.92;;;22.10;99.90;;;;;;5058460;28;20027;-65
2021/11/06 10:09:19;;;;;;;5.25;1.90;;;22.00;99.90;;;;;;5058733;28;20376;-63
2021/11/06 10:11:52;;;;;;;9.18;2.10;;;22.00;99.90;;;;;;5040530;28;20068;-66
2021/11/06 10:14:25;;;;;;;7.80;1.92;;;22.00;99.90;;;;;;5059549;28;20111;-67
2021/11/06 10:16:58;;;;;;;4.40;1.90;;;21.90;99.90;;;;;;5056458;28;20024;-65
2021/11/06 10:19:30;;;;;;;;;;;21.80;99.90;;;;;;5059322;28;20021;-65
2021/11/06 10:22:11;;;;;;;7.85;1.80;;;21.70;99.90;;;;;;5042189;28;20319;-64
2021/11/06 10:24:44;;;;;;;6.35;1.52;;;21.70;99.90;;;;;;5059559;28;20426;-65
2021/11/06 10:27:21;;;;;;;11.25;1.98;;;21.60;99.90;;;;;;5058777;28;20086;-64
2021/11/06 10:30:20;;;;;;;3.45;1.92;;;21.60;99.90;;;;;;5040997;28;20039;-65
2021/11/06 10:33:03;;;;;;;5.35;1.52;;;21.50;99.90;;;;;;5056047;28;20118;-66
2021/11/06 10:35:37;;;;;;;5.60;1.77;;;21.50;99.90;;;;;;5060094;28;20135;-66
2021/11/06 10:38:22;;;;;;;5.97;2.10;;;21.50;99.90;;;;;;5060308;28;20040;-66
2021/11/06 10:41:03;;;;;;;5.68;2.08;;;21.50;99.90;;;;;;5061809;28;20081;-64
2021/11/06 10:43:35;;;;;;;8.27;2.30;;;21.40;99.90;;;;;;5062037;28;20049;-67
2021/11/06 10:46:04;;;;;;;7.95;1.88;;;21.30;99.90;;;;;;5062091;28;20051;-68
2021/11/06 10:48:35;;;;;;;4.85;1.40;;;21.20;99.90;;;;;;5061803;28;20028;-69
2021/11/06 10:51:08;;;;;;;5.25;1.63;;;21.20;99.90;;;;;;5061825;28;20094;-68
2021/11/06 10:53:52;;;;;;;5.28;1.88;;;21.20;99.90;;;;;;4710524;28;9999754;-69
2021/11/06 10:56:28;;;;;;;7.65;2.00;;;21.10;99.90;;;;;;5057530;28;20074;-73
2021/11/06 10:58:58;;;;;;;7.55;2.70;;;21.00;99.90;;;;;;5056198;28;20830;-71
2021/11/06 11:01:40;;;;;;;15.43;8.27;;;21.00;99.90;;;;;;5058473;28;20025;-73
2021/11/06 11:04:09;;;;;;;15.55;7.30;;;20.90;99.90;;;;;;5058727;28;20033;-70
2021/11/06 11:06:59;;;;;;;15.48;9.55;;;20.80;99.90;;;;;;5059266;28;20033;-69
2021/11/06 11:09:29;;;;;;;13.68;9.25;;;20.70;99.90;;;;;;5057287;28;20068;-67
2021/11/06 11:12:00;;;;;;;14.35;8.80;;;20.80;99.90;;;;;;5059234;28;20036;-71
2021/11/06 11:14:30;;;;;;;10.30;5.05;;;20.80;99.90;;;;;;5058530;28;20032;-70
2021/11/06 11:17:00;;;;;;;7.20;3.53;;;20.70;99.90;;;;;;5058479;28;20686;-70
2021/11/06 11:19:40;;;;;;;5.65;2.80;;;20.80;99.90;;;;;;5057763;28;20021;-69
2021/11/06 11:22:31;;;;;;;49.55;33.38;;;20.80;99.90;;;;;;5041661;28;20044;-68
2021/11/06 11:24:59;;;;;;;7.47;3.88;;;20.70;99.90;;;;;;5058205;28;20021;-70
2021/11/06 11:27:26;;;;;;;8.93;2.75;;;20.80;99.90;;;;;;5058157;28;20745;-70
2021/11/06 11:29:53;;;;;;;9.48;3.10;;;20.60;99.90;;;;;;5057736;28;20068;-71
2021/11/06 11:32:20;;;;;;;5.88;2.00;;;20.50;99.90;;;;;;5057128;28;20040;-70
2021/11/06 11:34:47;;;;;;;7.78;2.13;;;20.50;99.90;;;;;;5059658;28;20021;-71
2021/11/06 11:37:16;;;;;;;10.25;2.78;;;20.30;99.90;;;;;;5058891;28;20032;-69
2021/11/06 11:39:45;;;;;;;13.52;6.00;;;20.30;99.90;;;;;;5057816;28;20534;-68
2021/11/06 11:42:23;;;;;;;10.48;6.60;;;20.30;99.90;;;;;;5058416;28;20028;-72
2021/11/06 11:45:13;;;;;;;;;;;20.20;99.90;;;;;;5060030;28;20028;-72
2021/11/06 11:47:52;;;;;;;9.18;4.88;;;20.20;99.90;;;;;;5057948;28;19916;-68
2021/11/06 11:50:30;;;;;;;16.52;9.07;;;20.10;99.90;;;;;;5055566;28;20055;-73
2021/11/06 11:52:59;;;;;;;10.65;6.35;;;20.00;99.90;;;;;;5055544;28;20028;-73
2021/11/06 11:55:44;;;;;;;13.35;4.30;;;19.90;99.90;;;;;;5057700;28;20048;-67
2021/11/06 11:58:22;;;;;;;10.63;3.20;;;19.80;99.90;;;;;;5038942;28;20430;-72
2021/11/06 12:01:02;;;;;;;4.72;2.03;;;19.70;99.90;;;;;;5056561;28;20021;-71
2021/11/06 12:03:39;;;;;;;10.43;3.40;;;19.70;99.90;;;;;;5055729;28;20487;-69
2021/11/06 12:06:33;;;;;;;9.52;2.88;;;19.70;99.90;;;;;;5058561;28;20066;-72
2021/11/06 12:09:20;;;;;;;8.45;2.95;;;19.70;99.90;;;;;;5059099;28;20512;-71
2021/11/06 12:11:53;;;;;;;6.45;2.17;;;19.70;99.90;;;;;;5061877;28;20396;-70
2021/11/06 12:14:31;;;;;;;6.63;2.47;;;19.70;99.90;;;;;;5061087;28;20035;-73
2021/11/06 12:17:07;;;;;;;8.13;1.80;;;19.80;99.90;;;;;;5042538;28;20052;-67
2021/11/06 12:19:46;;;;;;;6.97;2.42;;;19.70;99.90;;;;;;5060704;28;20036;-72
2021/11/06 12:22:32;;;;;;;8.77;3.45;;;19.70;99.90;;;;;;5060788;28;20116;-69
2021/11/06 12:25:19;;;;;;;10.63;4.10;;;19.70;99.90;;;;;;5060884;28;20021;-68
2021/11/06 12:27:56;;;;;;;10.00;4.60;;;19.80;99.90;;;;;;5061413;28;20024;-67
2021/11/06 12:30:29;;;;;;;12.23;4.90;;;19.70;99.90;;;;;;5063046;28;20019;-67
2021/11/06 12:32:57;;;;;;;9.02;3.20;;;19.70;99.90;;;;;;5060820;28;20032;-70
2021/11/06 12:35:29;;;;;;;8.10;2.53;;;19.80;99.90;;;;;;5061390;28;20070;-70
2021/11/06 12:38:04;;;;;;;9.07;2.20;;;19.70;99.90;;;;;;5059812;28;20033;-70
2021/11/06 12:40:37;;;;;;;6.60;2.45;;;19.70;99.90;;;;;;5060239;28;20036;-69
2021/11/06 12:43:20;;;;;;;9.10;2.58;;;19.70;99.90;;;;;;5057514;28;20108;-69
2021/11/06 12:45:49;;;;;;;11.10;3.38;;;19.70;99.90;;;;;;5059491;28;20457;-70
2021/11/06 12:48:22;;;;;;;5.03;2.20;;;19.60;99.90;;;;;;5059391;28;20131;-67
2021/11/06 12:50:59;;;;;;;;;;;19.60;99.90;;;;;;5060483;28;20046;-69
2021/11/06 12:53:44;;;;;;;15.05;7.95;;;19.60;99.90;;;;;;5059958;28;19970;-70
2021/11/06 12:56:23;;;;;;;9.88;5.47;;;19.50;99.90;;;;;;5061990;28;20665;-69